St Hubert Airport

Jump to: basic info | weather | frequencies | runways | comments

Related pages: nearby airports | nearby navaids | notams | map

Basic information (top)

Codes: EBSH
Location: lon 50.035900, lat 5.404250, elev 1,930 ft / 588 m msl
Status: small_airport

Weather (top)

Current conditions for Florennes Air Base 32nm (59km) WNW (rec'd 2014/04/17 21:25Z):

EBFS 172125Z 29007KT 9999 FEW060 BKN100 BKN120 12/02 Q1015 BLU

Airport forecast for Florennes Air Base 32nm (59km) WNW (rec'd 2014/03/12 19:24Z):

TAF TAF EBFS 121541Z 1219/1307 10006KT 9000 SKC 
      TEMPO 1302/1307 4000 BR

Frequencies (top)

Verify before use: may be inaccurate or out of date.

INFO: 119.7 MHz ()

Runways (top)

05/23: 1,969 x 623 ft (600 x 190 m) — grass — not lighted

14/32: 2,625 x 492 ft (800 x 150 m) — grass — not lighted

Latest comments (top)

Airport web site: http://www.sainthubert-airport.com/ R ... [read]

More... (top)

See also NOTAMs and nearby airports and navaids, or visit the St Hubert Airport page at the main OurAirports website..